LEBB/BIO METAR and TAF weather

Enter ICAO airport designator
Station Type Date Time Source
LEBB METAR 2020/04/03 06:00 UTC NOAA

LEBB 030600Z 08005KT 9999 FEW048 03/03 Q1020 NOSIG


Station Type Date Time Source
LEBB Decoded METAR 2020/04/03 06:00 UTC NOAA

Bilbao / Sondica, Spain (LEBB) 43-18N 002-56W 37M
Apr 03, 2020 - 02:00 AM EDT / 2020.04.03 0600 UTC
Wind: from the E (080 degrees) at 6 MPH (5 KT):0
Visibility: greater than 7 mile(s):0
Sky conditions: mostly clear
Temperature: 37 F (3 C)
Dew Point: 37 F (3 C)
Relative Humidity: 100%
Pressure (altimeter): 30.12 in. Hg (1020 hPa)
ob: LEBB 030600Z 08005KT 9999 FEW048 03/03 Q1020 NOSIG
cycle: 6

Station Type Date Time Source
LEBB TAF 2020/04/03 06:27 UTC NOAA

TAF LEBB 030500Z 0306/0406 11009KT 9999 SCT030 TX15/0315Z TN03/0306Z

Example: see airport list